Time;durP1;ratioP1;P1;durP2;ratioP2;P2;SDS_P1;SDS_P2;PMS_P1;PMS_P2;Temp;Humidity;BMP_temperature;BMP_pressure;BME280_temperature;BME280_humidity;BME280_pressure;Samples;Min_cycle;Max_cycle;Signal;HPM_P1;HPM_P2
2021/07/06 07:14:10;;;;;;;4.88;2.42;;;;;;;;;;3593911;39;20487;-65
2021/07/06 07:16:35;;;;;;;4.72;1.30;;;;;;;;;;3593177;39;20476;-65
2021/07/06 07:19:00;;;;;;;6.43;1.80;;;;;;;;;;3595748;39;20047;-66
2021/07/06 07:21:26;;;;;;;3.23;1.37;;;;;;;;;;3590906;39;20420;-66
2021/07/06 07:23:51;;;;;;;2.57;1.00;;;;;;;;;;3592813;39;20032;-66
2021/07/06 07:26:16;;;;;;;4.13;1.10;;;;;;;;;;3593561;39;20040;-66
2021/07/06 07:28:41;;;;;;;3.70;1.17;;;;;;;;;;3585518;39;20043;-67
2021/07/06 07:31:06;;;;;;;1.93;0.90;;;;;;;;;;3593752;39;20016;-67
2021/07/06 07:33:32;;;;;;;1.37;1.10;;;;;;;;;;3591065;39;20029;-66
2021/07/06 07:35:57;;;;;;;3.10;1.10;;;;;;;;;;3592154;39;21156;-67
2021/07/06 07:38:24;;;;;;;1.30;1.10;;;;;;;;;;3591475;39;20028;-67
2021/07/06 07:40:49;;;;;;;2.22;1.17;;;;;;;;;;3593968;39;20042;-67
2021/07/06 07:43:14;;;;;;;6.22;0.90;;;;;;;;;;3591939;39;20320;-66
2021/07/06 07:45:39;;;;;;;2.87;1.30;;;;;;;;;;3595532;39;20024;-67
2021/07/06 07:48:05;;;;;;;10.00;5.73;;;;;;;;;;3593829;39;20040;-66
2021/07/06 07:50:30;;;;;;;2.50;0.90;;;;;;;;;;3593607;39;20040;-67
2021/07/06 07:52:55;;;;;;;5.10;1.15;;;;;;;;;;3594885;39;20327;-66
2021/07/06 07:55:20;;;;;;;2.73;1.40;;;;;;;;;;3596793;39;20401;-67
2021/07/06 07:57:46;;;;;;;1.77;1.00;;;;;;;;;;3595371;39;20036;-67
2021/07/06 08:00:12;;;;;;;1.47;0.90;;;;;;;;;;3592230;39;20101;-67
2021/07/06 08:02:41;;;;;;;4.97;1.13;;;;;;;;;;3593519;39;20326;-66
2021/07/06 08:05:06;;;;;;;2.90;1.00;;;;;;;;;;3589038;39;20107;-67
2021/07/06 08:07:31;;;;;;;4.03;1.10;;;;;;;;;;3595261;39;20043;-67
2021/07/06 08:09:56;;;;;;;1.30;0.97;;;;;;;;;;3590937;39;20040;-67
2021/07/06 08:12:22;;;;;;;4.30;1.30;;;;;;;;;;3593226;39;20020;-65
2021/07/06 08:14:49;;;;;;;2.27;1.10;;;;;;;;;;3599874;39;20032;-67
2021/07/06 08:17:14;;;;;;;5.72;1.02;;;;;;;;;;3591199;39;20566;-66
2021/07/06 08:19:39;;;;;;;1.80;1.00;;;;;;;;;;3595456;39;20024;-67
2021/07/06 08:22:05;;;;;;;3.37;1.10;;;;;;;;;;3592638;39;20036;-67
2021/07/06 08:24:30;;;;;;;5.43;0.90;;;;;;;;;;3589176;39;20100;-66
2021/07/06 08:26:55;;;;;;;2.25;0.90;;;;;;;;;;3586421;40;20966;-67
2021/07/06 08:29:23;;;;;;;4.77;0.90;;;;;;;;;;3584761;40;20301;-68
2021/07/06 08:31:48;;;;;;;2.55;0.90;;;;;;;;;;3584506;40;20279;-66
2021/07/06 08:34:13;;;;;;;3.37;1.00;;;;;;;;;;3583813;40;20040;-67
2021/07/06 08:36:38;;;;;;;4.03;1.13;;;;;;;;;;3592651;39;20032;-67
2021/07/06 08:39:03;;;;;;;5.17;1.00;;;;;;;;;;3585022;40;20037;-67
2021/07/06 08:41:29;;;;;;;4.17;0.80;;;;;;;;;;3583118;40;20059;-66
2021/07/06 08:43:54;;;;;;;2.77;1.00;;;;;;;;;;3585930;40;20044;-66
2021/07/06 08:46:19;;;;;;;4.27;0.97;;;;;;;;;;3586607;40;20048;-66
2021/07/06 08:48:44;;;;;;;4.90;0.80;;;;;;;;;;3585986;40;20090;-66
2021/07/06 08:51:09;;;;;;;1.43;0.80;;;;;;;;;;3584391;40;20269;-66
2021/07/06 08:53:35;;;;;;;3.03;0.80;;;;;;;;;;3584119;40;20068;-67
2021/07/06 08:56:00;;;;;;;2.77;0.70;;;;;;;;;;3588582;40;20058;-64
2021/07/06 08:58:25;;;;;;;1.60;0.90;;;;;;;;;;3585385;40;20668;-61
2021/07/06 09:00:51;;;;;;;4.20;1.00;;;;;;;;;;3586669;40;20108;-61
2021/07/06 09:03:16;;;;;;;4.73;0.90;;;;;;;;;;3588375;40;20035;-60
2021/07/06 09:05:41;;;;;;;2.63;0.97;;;;;;;;;;3586014;40;20290;-61
2021/07/06 09:08:07;;;;;;;1.30;0.97;;;;;;;;;;3584737;40;20043;-59
2021/07/06 09:10:32;;;;;;;5.60;1.20;;;;;;;;;;3583780;40;20728;-60
2021/07/06 09:12:59;;;;;;;1.37;0.67;;;;;;;;;;3588425;40;20043;-61
2021/07/06 09:15:24;;;;;;;1.23;0.80;;;;;;;;;;3586884;40;20324;-61
2021/07/06 09:17:49;;;;;;;9.57;2.53;;;;;;;;;;3585126;40;20102;-61
2021/07/06 09:20:15;;;;;;;3.23;1.10;;;;;;;;;;3585717;40;20523;-61
2021/07/06 09:22:40;;;;;;;7.17;0.80;;;;;;;;;;3587645;40;20032;-61
2021/07/06 09:25:05;;;;;;;1.03;0.67;;;;;;;;;;3585299;40;20048;-61
2021/07/06 09:27:30;;;;;;;1.60;0.80;;;;;;;;;;3583501;40;20401;-61
2021/07/06 09:29:55;;;;;;;3.73;0.60;;;;;;;;;;3581272;40;20393;-61
2021/07/06 09:32:21;;;;;;;2.70;0.60;;;;;;;;;;3586289;40;20035;-62
2021/07/06 09:34:46;;;;;;;3.20;1.23;;;;;;;;;;3582911;40;20398;-61
2021/07/06 09:37:11;;;;;;;1.30;0.70;;;;;;;;;;3592265;39;20033;-61
2021/07/06 09:39:36;;;;;;;5.60;0.50;;;;;;;;;;3582330;40;20669;-62
2021/07/06 09:42:01;;;;;;;2.33;0.93;;;;;;;;;;3581794;40;20759;-61
2021/07/06 09:44:27;;;;;;;3.07;0.90;;;;;;;;;;3583720;40;20499;-62
2021/07/06 09:46:52;;;;;;;1.73;0.80;;;;;;;;;;3582568;40;20751;-61
2021/07/06 09:49:18;;;;;;;2.70;1.03;;;;;;;;;;3584841;40;20507;-62
2021/07/06 09:51:43;;;;;;;1.13;0.70;;;;;;;;;;3585660;40;20449;-61
2021/07/06 09:54:09;;;;;;;2.57;1.57;;;;;;;;;;3585225;40;20132;-61
2021/07/06 09:56:34;;;;;;;3.90;0.90;;;;;;;;;;3584086;40;20033;-61
2021/07/06 09:59:08;;;;;;;6.30;1.00;;;;;;;;;;3586419;40;20465;-61
2021/07/06 10:01:34;;;;;;;2.92;0.80;;;;;;;;;;3584143;40;20029;-62
2021/07/06 10:03:59;;;;;;;1.35;0.50;;;;;;;;;;3584661;40;20032;-61
2021/07/06 10:06:24;;;;;;;3.77;2.07;;;;;;;;;;3593700;39;20480;-61
2021/07/06 10:08:50;;;;;;;13.50;4.83;;;;;;;;;;3584827;40;20043;-61
2021/07/06 10:11:15;;;;;;;2.85;1.38;;;;;;;;;;3585287;40;20028;-62
2021/07/06 10:13:40;;;;;;;4.47;1.97;;;;;;;;;;3586009;40;20029;-61
2021/07/06 10:16:05;;;;;;;4.80;1.53;;;;;;;;;;3586952;40;20043;-60
2021/07/06 10:18:31;;;;;;;5.53;1.30;;;;;;;;;;3584623;40;20020;-61
2021/07/06 10:20:56;;;;;;;2.35;0.77;;;;;;;;;;3584698;40;20311;-61
2021/07/06 10:23:21;;;;;;;2.67;0.80;;;;;;;;;;3584093;40;20029;-60
2021/07/06 10:25:48;;;;;;;2.87;0.73;;;;;;;;;;3585912;40;20028;-60
2021/07/06 10:28:13;;;;;;;4.97;0.80;;;;;;;;;;3585712;40;20033;-61
2021/07/06 10:30:38;;;;;;;5.60;1.03;;;;;;;;;;3591434;39;20040;-61
2021/07/06 10:33:03;;;;;;;2.20;0.67;;;;;;;;;;3583928;40;20036;-61
2021/07/06 10:35:29;;;;;;;1.80;0.90;;;;;;;;;;3583981;40;20741;-61
2021/07/06 10:37:54;;;;;;;2.17;0.80;;;;;;;;;;3582540;40;20313;-61
2021/07/06 10:40:19;;;;;;;1.47;0.70;;;;;;;;;;3583689;40;20043;-61
2021/07/06 10:42:46;;;;;;;1.30;0.73;;;;;;;;;;3584783;40;20033;-61
2021/07/06 10:45:11;;;;;;;5.05;0.90;;;;;;;;;;3584212;40;20033;-61
2021/07/06 10:47:36;;;;;;;5.83;0.80;;;;;;;;;;3587066;39;20127;-60
2021/07/06 10:50:02;;;;;;;1.83;0.70;;;;;;;;;;3583532;40;20027;-60
2021/07/06 10:52:27;;;;;;;3.50;0.80;;;;;;;;;;3586909;39;20032;-61
2021/07/06 10:54:52;;;;;;;2.77;0.70;;;;;;;;;;3583166;40;20421;-61
2021/07/06 10:57:23;;;;;;;2.47;0.60;;;;;;;;;;3591395;39;20508;-62
2021/07/06 10:59:48;;;;;;;2.13;1.08;;;;;;;;;;3584000;40;20109;-61
2021/07/06 11:02:13;;;;;;;13.37;7.53;;;;;;;;;;3584127;40;20036;-61
2021/07/06 11:04:51;;;;;;;4.93;1.57;;;;;;;;;;3584892;40;20389;-61
2021/07/06 11:07:16;;;;;;;2.08;0.85;;;;;;;;;;3583620;40;20024;-61
2021/07/06 11:09:42;;;;;;;3.08;0.93;;;;;;;;;;3586244;40;20041;-61
2021/07/06 11:12:07;;;;;;;7.22;0.90;;;;;;;;;;3583835;39;20048;-61
2021/07/06 11:14:32;;;;;;;2.60;0.90;;;;;;;;;;3585412;40;20032;-62
2021/07/06 11:16:57;;;;;;;0.70;0.70;;;;;;;;;;3584194;40;20061;-64
2021/07/06 11:19:23;;;;;;;4.47;0.80;;;;;;;;;;3587333;40;20473;-61
2021/07/06 11:21:48;;;;;;;2.23;0.80;;;;;;;;;;3584701;40;20435;-63
2021/07/06 11:24:13;;;;;;;1.87;0.97;;;;;;;;;;3584172;40;20473;-63
2021/07/06 11:26:38;;;;;;;2.83;0.80;;;;;;;;;;3584723;40;20044;-63
2021/07/06 11:29:04;;;;;;;1.43;0.80;;;;;;;;;;3585663;40;20339;-63
2021/07/06 11:31:29;;;;;;;5.90;1.07;;;;;;;;;;3585916;40;20239;-61
2021/07/06 11:33:54;;;;;;;0.67;0.50;;;;;;;;;;3583577;40;20132;-61
2021/07/06 11:36:19;;;;;;;2.90;0.60;;;;;;;;;;3583577;40;20050;-62
2021/07/06 11:38:45;;;;;;;0.67;0.50;;;;;;;;;;3583624;40;20031;-60
2021/07/06 11:41:10;;;;;;;2.60;0.50;;;;;;;;;;3583502;40;20287;-61
2021/07/06 11:43:35;;;;;;;0.93;0.60;;;;;;;;;;3584433;40;20079;-62
2021/07/06 11:46:00;;;;;;;3.23;0.60;;;;;;;;;;3584196;40;20782;-61
2021/07/06 11:48:25;;;;;;;3.17;0.67;;;;;;;;;;3582825;40;20032;-61
2021/07/06 11:50:51;;;;;;;2.97;0.40;;;;;;;;;;3585463;40;20125;-61
2021/07/06 11:53:16;;;;;;;1.25;0.63;;;;;;;;;;3599836;39;20044;-61
2021/07/06 11:55:42;;;;;;;3.03;0.60;;;;;;;;;;3583662;40;20103;-62
2021/07/06 11:58:08;;;;;;;1.35;0.60;;;;;;;;;;3583210;39;20057;-60
2021/07/06 12:00:33;;;;;;;1.27;0.50;;;;;;;;;;3586499;40;20028;-61
2021/07/06 12:02:58;;;;;;;0.55;0.50;;;;;;;;;;3584857;40;20397;-62
2021/07/06 12:05:23;;;;;;;3.23;0.60;;;;;;;;;;3583469;40;20036;-62
2021/07/06 12:07:48;;;;;;;2.90;0.57;;;;;;;;;;3584502;40;20024;-62
2021/07/06 12:10:14;;;;;;;2.80;0.67;;;;;;;;;;3585660;40;20024;-62
2021/07/06 12:12:39;;;;;;;4.90;0.60;;;;;;;;;;3584952;40;20379;-62
2021/07/06 12:15:04;;;;;;;0.93;0.60;;;;;;;;;;3585737;40;20029;-62
2021/07/06 12:17:30;;;;;;;5.63;0.70;;;;;;;;;;3586846;40;20531;-62
2021/07/06 12:19:55;;;;;;;1.37;0.60;;;;;;;;;;3587770;40;20631;-62
2021/07/06 12:22:20;;;;;;;4.40;0.60;;;;;;;;;;3584975;40;20854;-62
2021/07/06 12:24:45;;;;;;;1.33;0.50;;;;;;;;;;3583376;40;20039;-62
2021/07/06 12:27:14;;;;;;;0.67;0.50;;;;;;;;;;3583735;40;20409;-63
2021/07/06 12:29:40;;;;;;;1.30;0.70;;;;;;;;;;3584164;40;20032;-63
2021/07/06 12:32:12;;;;;;;1.52;0.70;;;;;;;;;;3583298;40;20320;-63
2021/07/06 12:34:37;;;;;;;2.78;0.60;;;;;;;;;;3584756;40;20033;-63
2021/07/06 12:37:03;;;;;;;2.15;0.50;;;;;;;;;;3584953;40;20044;-63
2021/07/06 12:39:28;;;;;;;1.37;0.43;;;;;;;;;;3586977;40;20032;-62
2021/07/06 12:41:53;;;;;;;2.73;0.50;;;;;;;;;;3582482;40;20068;-62
2021/07/06 12:44:18;;;;;;;3.83;0.60;;;;;;;;;;3583570;40;20305;-63
2021/07/06 12:46:43;;;;;;;4.87;0.50;;;;;;;;;;3584160;40;20074;-62
2021/07/06 12:49:09;;;;;;;1.37;0.50;;;;;;;;;;3585291;40;20025;-63
2021/07/06 12:51:34;;;;;;;1.03;0.40;;;;;;;;;;3583988;40;20032;-63
2021/07/06 12:53:59;;;;;;;1.37;0.37;;;;;;;;;;3584416;40;20298;-63
2021/07/06 12:56:25;;;;;;;1.00;0.50;;;;;;;;;;3586245;40;20303;-63
2021/07/06 12:58:50;;;;;;;1.65;0.60;;;;;;;;;;3585549;40;20121;-63
2021/07/06 13:01:15;;;;;;;3.50;0.70;;;;;;;;;;3584124;40;20675;-63
2021/07/06 13:03:40;;;;;;;0.90;0.60;;;;;;;;;;3585537;40;20297;-63
2021/07/06 13:06:10;;;;;;;3.00;0.77;;;;;;;;;;3585437;40;20113;-63
2021/07/06 13:08:36;;;;;;;1.60;0.57;;;;;;;;;;3587247;40;20100;-63
2021/07/06 13:11:04;;;;;;;2.83;0.50;;;;;;;;;;3585101;40;20044;-63
2021/07/06 13:13:30;;;;;;;5.47;0.68;;;;;;;;;;3583102;40;20036;-63
2021/07/06 13:15:55;;;;;;;0.75;0.30;;;;;;;;;;3585120;40;20162;-63
2021/07/06 13:18:20;;;;;;;1.20;0.57;;;;;;;;;;3585801;40;20040;-63
2021/07/06 13:20:45;;;;;;;4.27;0.40;;;;;;;;;;3585964;40;20389;-63
2021/07/06 13:23:11;;;;;;;0.93;0.60;;;;;;;;;;3584148;40;20035;-62
2021/07/06 13:25:36;;;;;;;0.50;0.40;;;;;;;;;;3585673;39;20108;-62
2021/07/06 13:28:01;;;;;;;0.93;0.60;;;;;;;;;;3588971;40;20446;-63
2021/07/06 13:30:26;;;;;;;4.07;0.60;;;;;;;;;;3586677;40;20028;-65
2021/07/06 13:32:52;;;;;;;0.70;0.40;;;;;;;;;;3593318;39;20124;-62
2021/07/06 13:35:17;;;;;;;6.13;2.93;;;;;;;;;;3584871;40;20352;-63
2021/07/06 13:37:42;;;;;;;2.00;0.53;;;;;;;;;;3585056;40;20024;-62
2021/07/06 13:40:08;;;;;;;1.33;0.50;;;;;;;;;;3585397;40;20024;-62
2021/07/06 13:42:33;;;;;;;3.72;1.38;;;;;;;;;;3584346;40;20032;-62
2021/07/06 13:44:59;;;;;;;1.63;0.60;;;;;;;;;;3585543;40;20032;-63
2021/07/06 13:47:24;;;;;;;5.27;0.87;;;;;;;;;;3585681;40;20289;-63
2021/07/06 13:49:49;;;;;;;2.57;0.50;;;;;;;;;;3586005;40;20012;-63
2021/07/06 13:52:14;;;;;;;0.73;0.50;;;;;;;;;;3582750;40;20286;-63
2021/07/06 13:54:40;;;;;;;3.33;0.70;;;;;;;;;;3583804;40;20036;-65
2021/07/06 13:57:09;;;;;;;0.93;0.50;;;;;;;;;;3583489;40;20028;-63
2021/07/06 13:59:34;;;;;;;4.32;0.50;;;;;;;;;;3586154;39;20032;-62
2021/07/06 14:01:59;;;;;;;1.57;1.10;;;;;;;;;;3584682;39;20040;-62
2021/07/06 14:04:24;;;;;;;7.97;3.97;;;;;;;;;;3582798;40;20041;-62
2021/07/06 14:06:50;;;;;;;2.50;1.63;;;;;;;;;;3585867;40;20043;-61
2021/07/06 14:09:15;;;;;;;2.40;1.20;;;;;;;;;;3581792;40;20102;-62
2021/07/06 14:11:41;;;;;;;0.65;0.60;;;;;;;;;;3591432;39;20032;-62
2021/07/06 14:14:06;;;;;;;4.23;0.57;;;;;;;;;;3591285;39;20287;-62
2021/07/06 14:16:31;;;;;;;1.03;0.60;;;;;;;;;;3592134;39;20090;-62
2021/07/06 14:18:56;;;;;;;4.63;0.80;;;;;;;;;;3585822;40;20057;-63
2021/07/06 14:21:21;;;;;;;1.17;0.50;;;;;;;;;;3583620;40;20036;-62
2021/07/06 14:23:47;;;;;;;2.20;0.70;;;;;;;;;;3586449;40;20137;-62
2021/07/06 14:26:12;;;;;;;3.47;0.60;;;;;;;;;;3585799;40;20016;-62
2021/07/06 14:28:41;;;;;;;2.50;0.60;;;;;;;;;;3584018;40;20040;-61
2021/07/06 14:31:06;;;;;;;3.70;0.80;;;;;;;;;;3583806;40;20064;-62
2021/07/06 14:33:32;;;;;;;0.80;0.63;;;;;;;;;;3584845;40;20044;-63
2021/07/06 14:35:57;;;;;;;5.87;1.60;;;;;;;;;;3583506;40;20025;-62
2021/07/06 14:38:22;;;;;;;1.10;0.60;;;;;;;;;;3583995;40;20028;-62
2021/07/06 14:40:47;;;;;;;5.80;1.00;;;;;;;;;;3585177;40;20031;-62
2021/07/06 14:43:13;;;;;;;2.50;1.20;;;;;;;;;;3584514;40;20035;-62
2021/07/06 14:45:38;;;;;;;3.90;0.70;;;;;;;;;;3584349;40;20040;-62
2021/07/06 14:48:03;;;;;;;3.07;1.30;;;;;;;;;;3592222;39;20051;-62
2021/07/06 14:50:28;;;;;;;9.50;1.10;;;;;;;;;;3585411;40;20516;-62
2021/07/06 14:52:54;;;;;;;3.90;0.80;;;;;;;;;;3585549;40;20082;-63
2021/07/06 14:55:19;;;;;;;2.93;0.77;;;;;;;;;;3587472;40;20048;-62
2021/07/06 14:57:44;;;;;;;7.10;1.30;;;;;;;;;;3587488;40;20512;-62
2021/07/06 15:00:12;;;;;;;11.02;1.33;;;;;;;;;;3583670;40;20039;-62
2021/07/06 15:02:37;;;;;;;12.77;1.00;;;;;;;;;;3585236;40;20084;-62
2021/07/06 15:05:03;;;;;;;1.33;0.80;;;;;;;;;;3584444;39;20056;-68
2021/07/06 15:07:31;;;;;;;3.43;1.27;;;;;;;;;;3585577;39;20603;-67
2021/07/06 15:09:56;;;;;;;3.88;0.95;;;;;;;;;;3584130;40;20856;-67
2021/07/06 15:12:21;;;;;;;18.03;4.00;;;;;;;;;;3581971;40;20044;-67
2021/07/06 15:14:46;;;;;;;9.33;1.57;;;;;;;;;;3584821;40;20274;-67
2021/07/06 15:17:12;;;;;;;1.40;0.90;;;;;;;;;;3583129;40;20033;-67
2021/07/06 15:19:37;;;;;;;6.70;1.77;;;;;;;;;;3583722;40;20008;-68
2021/07/06 15:22:02;;;;;;;5.77;2.53;;;;;;;;;;3582356;40;20080;-67
2021/07/06 15:24:27;;;;;;;10.70;3.00;;;;;;;;;;3583789;40;20025;-67
2021/07/06 15:26:52;;;;;;;6.13;1.50;;;;;;;;;;3594336;39;20633;-67
2021/07/06 15:29:18;;;;;;;5.67;1.30;;;;;;;;;;3586310;40;20024;-67
2021/07/06 15:31:43;;;;;;;9.83;1.40;;;;;;;;;;3584005;40;20110;-67
2021/07/06 15:34:08;;;;;;;9.97;1.27;;;;;;;;;;3585391;39;20122;-67
2021/07/06 15:36:33;;;;;;;9.73;1.20;;;;;;;;;;3588208;40;20747;-67
2021/07/06 15:38:58;;;;;;;3.60;1.37;;;;;;;;;;3587941;40;20048;-67
2021/07/06 15:41:24;;;;;;;9.93;1.20;;;;;;;;;;3585461;40;20424;-67
2021/07/06 15:43:50;;;;;;;13.47;1.60;;;;;;;;;;3587828;40;20044;-67
2021/07/06 15:46:16;;;;;;;8.35;1.13;;;;;;;;;;3586461;40;20108;-67
2021/07/06 15:48:41;;;;;;;2.83;1.10;;;;;;;;;;3584957;40;20363;-67
2021/07/06 15:51:07;;;;;;;4.97;1.57;;;;;;;;;;3587739;40;20025;-67
2021/07/06 15:53:33;;;;;;;4.20;2.60;;;;;;;;;;3592454;39;20273;-67
2021/07/06 15:55:58;;;;;;;6.77;1.40;;;;;;;;;;3587622;40;20036;-67
2021/07/06 15:58:23;;;;;;;9.30;1.58;;;;;;;;;;3585243;40;20482;-67
2021/07/06 16:00:48;;;;;;;3.17;1.00;;;;;;;;;;3586948;40;20128;-67
2021/07/06 16:03:14;;;;;;;3.47;1.20;;;;;;;;;;3593028;39;20028;-67
2021/07/06 16:05:39;;;;;;;2.28;1.10;;;;;;;;;;3593761;39;20054;-67
2021/07/06 16:08:04;;;;;;;5.00;1.27;;;;;;;;;;3586527;40;20028;-67
2021/07/06 16:10:29;;;;;;;7.00;1.10;;;;;;;;;;3584823;40;20039;-67
2021/07/06 16:12:55;;;;;;;3.80;1.10;;;;;;;;;;3592383;39;20477;-67
2021/07/06 16:15:24;;;;;;;2.92;0.90;;;;;;;;;;3592596;39;20788;-67
2021/07/06 16:17:49;;;;;;;3.90;0.90;;;;;;;;;;3586507;40;20025;-67
2021/07/06 16:20:15;;;;;;;5.47;1.10;;;;;;;;;;3585425;40;20031;-67
2021/07/06 16:22:40;;;;;;;5.73;1.03;;;;;;;;;;3586267;40;20028;-67
2021/07/06 16:25:05;;;;;;;1.77;0.80;;;;;;;;;;3585132;40;20286;-66
2021/07/06 16:27:31;;;;;;;3.93;1.40;;;;;;;;;;3587873;40;20263;-66
2021/07/06 16:29:56;;;;;;;1.27;1.10;;;;;;;;;;3586059;40;20247;-67
2021/07/06 16:32:21;;;;;;;12.50;5.97;;;;;;;;;;3586552;40;20683;-67
2021/07/06 16:34:46;;;;;;;4.60;1.70;;;;;;;;;;3586701;40;20028;-66
2021/07/06 16:37:12;;;;;;;12.67;3.47;;;;;;;;;;3588704;40;20094;-66
2021/07/06 16:39:37;;;;;;;8.20;5.00;;;;;;;;;;3588527;40;20024;-66
2021/07/06 16:42:02;;;;;;;8.03;2.47;;;;;;;;;;3588371;40;20035;-66
2021/07/06 16:44:27;;;;;;;2.23;1.20;;;;;;;;;;3584630;40;20039;-67
2021/07/06 16:46:53;;;;;;;3.13;1.30;;;;;;;;;;3602616;39;20788;-65
2021/07/06 16:49:18;;;;;;;3.00;1.03;;;;;;;;;;3594959;39;20040;-65
2021/07/06 17:58:17;;;;;;;1.88;1.20;;;;;;;;;;3504047;40;20042;-71
2021/07/06 18:00:43;;;;;;;1.20;1.10;;;;;;;;;;3518538;40;20038;-71
2021/07/06 18:03:24;;;;;;;3.15;1.10;;;;;;;;;;3507938;40;20051;-72
2021/07/06 18:05:49;;;;;;;1.35;1.10;;;;;;;;;;3534594;40;20071;-72
2021/07/06 18:08:14;;;;;;;2.05;1.20;;;;;;;;;;3540856;40;20032;-71
2021/07/06 18:10:40;;;;;;;2.90;1.33;;;;;;;;;;3583702;40;20036;-71
2021/07/06 18:13:05;;;;;;;2.22;1.20;;;;;;;;;;3584669;40;20496;-70
2021/07/06 18:15:30;;;;;;;4.43;1.30;;;;;;;;;;3584493;40;20613;-70
2021/07/06 18:17:56;;;;;;;2.13;1.30;;;;;;;;;;3584295;40;20456;-70
2021/07/06 18:20:21;;;;;;;26.40;14.60;;;;;;;;;;3583462;40;20041;-70
2021/07/06 18:22:46;;;;;;;1.83;1.33;;;;;;;;;;3583983;40;20866;-71
2021/07/06 18:25:12;;;;;;;2.53;1.63;;;;;;;;;;3584197;40;20524;-71
2021/07/06 18:27:37;;;;;;;7.73;1.40;;;;;;;;;;3582379;40;20927;-71
2021/07/06 18:30:02;;;;;;;9.23;2.88;;;;;;;;;;3584922;40;20021;-70
2021/07/06 18:32:27;;;;;;;4.60;2.30;;;;;;;;;;3585196;40;20020;-71
2021/07/06 18:34:53;;;;;;;4.10;1.97;;;;;;;;;;3589550;39;20043;-70
2021/07/06 18:37:19;;;;;;;4.82;3.55;;;;;;;;;;3585313;40;20031;-71
2021/07/06 18:39:45;;;;;;;5.55;1.70;;;;;;;;;;3582882;40;20040;-70
2021/07/06 18:42:10;;;;;;;2.57;1.73;;;;;;;;;;3585689;40;20033;-70
2021/07/06 18:44:35;;;;;;;4.63;2.43;;;;;;;;;;3584384;40;20025;-70
2021/07/06 18:47:00;;;;;;;1.90;1.47;;;;;;;;;;3584520;40;20286;-69
2021/07/06 18:49:26;;;;;;;2.83;1.20;;;;;;;;;;3584091;40;20039;-70
2021/07/06 18:51:55;;;;;;;7.50;2.20;;;;;;;;;;3582963;40;20451;-70
2021/07/06 18:54:20;;;;;;;2.03;1.67;;;;;;;;;;3582502;40;20077;-70
2021/07/06 18:56:45;;;;;;;6.20;3.23;;;;;;;;;;3583985;40;20044;-70
2021/07/06 18:59:10;;;;;;;4.40;1.57;;;;;;;;;;3582902;40;20027;-70
2021/07/06 19:01:36;;;;;;;3.80;1.70;;;;;;;;;;3583288;40;20418;-69
2021/07/06 19:04:01;;;;;;;1.70;1.00;;;;;;;;;;3583601;40;20570;-70
2021/07/06 19:06:26;;;;;;;2.60;1.50;;;;;;;;;;3585141;39;20729;-70
2021/07/06 19:08:52;;;;;;;1.95;1.33;;;;;;;;;;3585114;39;20277;-70
2021/07/06 19:11:17;;;;;;;5.03;1.10;;;;;;;;;;3582584;40;20714;-69
2021/07/06 19:13:48;;;;;;;5.13;1.60;;;;;;;;;;3584262;40;20278;-69
2021/07/06 19:16:13;;;;;;;5.63;1.63;;;;;;;;;;3583864;40;20274;-69
2021/07/06 19:18:39;;;;;;;2.90;1.00;;;;;;;;;;3583544;40;20120;-69
2021/07/06 19:21:05;;;;;;;3.17;1.05;;;;;;;;;;3584500;40;20047;-70
2021/07/06 19:31:05;;;;;;;3.53;1.15;;;;;;;;;;3582847;40;20425;-70
2021/07/06 19:31:39;;;;;;;1.30;1.08;;;;;;;;;;3583830;40;20114;-71
2021/07/06 19:34:04;;;;;;;3.57;1.20;;;;;;;;;;3582527;40;20062;-71
2021/07/06 19:36:30;;;;;;;2.47;1.10;;;;;;;;;;3587445;40;20546;-71
2021/07/06 19:38:55;;;;;;;3.77;0.90;;;;;;;;;;3583724;40;20785;-71
2021/07/06 19:41:20;;;;;;;1.40;1.07;;;;;;;;;;3591601;39;20484;-62
2021/07/06 19:43:46;;;;;;;3.05;1.00;;;;;;;;;;3583840;40;20033;-61
2021/07/06 19:46:11;;;;;;;4.57;1.10;;;;;;;;;;3583203;40;20036;-61
2021/07/06 19:48:36;;;;;;;2.37;0.90;;;;;;;;;;3582198;40;20033;-62
2021/07/06 19:51:01;;;;;;;1.25;0.90;;;;;;;;;;3583828;40;20480;-61
2021/07/06 19:53:26;;;;;;;1.33;1.17;;;;;;;;;;3583706;40;20059;-61
2021/07/06 19:55:57;;;;;;;4.13;1.60;;;;;;;;;;3584362;40;20043;-62
2021/07/06 19:58:23;;;;;;;1.25;1.00;;;;;;;;;;3582033;40;20037;-61
2021/07/06 20:00:48;;;;;;;3.80;1.10;;;;;;;;;;3583777;40;20535;-61
2021/07/06 20:03:13;;;;;;;3.30;2.33;;;;;;;;;;3583697;40;20048;-61
2021/07/06 20:05:38;;;;;;;3.17;1.73;;;;;;;;;;3582314;40;20433;-67
2021/07/06 20:08:04;;;;;;;3.50;1.55;;;;;;;;;;3583698;40;20025;-66
2021/07/06 20:10:29;;;;;;;8.10;1.30;;;;;;;;;;3583525;40;20029;-66
2021/07/06 20:12:54;;;;;;;2.23;1.10;;;;;;;;;;3585012;40;20735;-67
2021/07/06 20:15:19;;;;;;;2.30;1.20;;;;;;;;;;3583391;40;20706;-65
2021/07/06 20:17:45;;;;;;;1.47;1.10;;;;;;;;;;3583789;40;20040;-66
2021/07/06 20:20:10;;;;;;;13.67;1.20;;;;;;;;;;3582918;39;20036;-66
2021/07/06 20:22:36;;;;;;;2.87;1.17;;;;;;;;;;3585624;40;20677;-67
2021/07/06 20:25:02;;;;;;;2.65;1.20;;;;;;;;;;3583030;40;20615;-67
2021/07/06 20:27:28;;;;;;;2.03;1.13;;;;;;;;;;3587974;40;20028;-66
2021/07/06 20:29:53;;;;;;;3.42;1.08;;;;;;;;;;3585151;40;20067;-67
2021/07/06 20:32:18;;;;;;;1.43;0.90;;;;;;;;;;3584086;40;20695;-67
2021/07/06 20:34:43;;;;;;;6.37;1.33;;;;;;;;;;3584302;40;20048;-66
2021/07/06 20:37:09;;;;;;;2.80;1.10;;;;;;;;;;3585719;40;21009;-67
2021/07/06 20:39:34;;;;;;;3.50;1.10;;;;;;;;;;3583941;40;20113;-67
2021/07/06 20:41:59;;;;;;;2.07;1.10;;;;;;;;;;3582411;40;20489;-67
2021/07/06 20:44:24;;;;;;;5.53;1.20;;;;;;;;;;3586019;40;20036;-66
2021/07/06 20:46:50;;;;;;;5.83;2.03;;;;;;;;;;3584103;40;20786;-66
2021/07/06 20:49:15;;;;;;;4.60;1.30;;;;;;;;;;3585778;40;20036;-66
2021/07/06 20:51:41;;;;;;;3.67;1.67;;;;;;;;;;3585058;40;21111;-65
2021/07/06 20:54:08;;;;;;;3.47;1.20;;;;;;;;;;3583934;40;20036;-66
2021/07/06 20:56:33;;;;;;;2.63;1.20;;;;;;;;;;3585942;40;20026;-66
2021/07/06 20:58:58;;;;;;;2.83;1.50;;;;;;;;;;3583320;40;20036;-60
2021/07/06 21:01:23;;;;;;;3.67;1.17;;;;;;;;;;3585397;40;20025;-60
2021/07/06 21:03:48;;;;;;;19.27;8.20;;;;;;;;;;3585550;40;20038;-60
2021/07/06 21:06:14;;;;;;;5.72;1.60;;;;;;;;;;3584901;40;20032;-60
2021/07/06 21:08:39;;;;;;;3.00;1.83;;;;;;;;;;3584913;40;20102;-65
2021/07/06 21:11:04;;;;;;;2.33;1.67;;;;;;;;;;3584692;40;20065;-66
2021/07/06 21:13:30;;;;;;;3.42;2.17;;;;;;;;;;3585473;40;20047;-66
2021/07/06 21:15:55;;;;;;;6.40;1.80;;;;;;;;;;3584269;40;20032;-66
2021/07/06 21:18:20;;;;;;;1.30;1.20;;;;;;;;;;3584104;40;20231;-66
2021/07/06 21:20:45;;;;;;;2.73;1.30;;;;;;;;;;3582983;40;20287;-66
2021/07/06 21:23:11;;;;;;;3.13;1.50;;;;;;;;;;3585742;40;20807;-66
2021/07/06 21:25:36;;;;;;;3.93;1.30;;;;;;;;;;3585577;40;20297;-66
2021/07/06 21:28:01;;;;;;;2.20;1.30;;;;;;;;;;3586015;40;20513;-65
2021/07/06 21:30:26;;;;;;;7.77;1.83;;;;;;;;;;3584784;39;20109;-66
2021/07/06 21:32:51;;;;;;;4.70;1.50;;;;;;;;;;3587150;40;20033;-66
2021/07/06 21:35:17;;;;;;;2.13;1.27;;;;;;;;;;3584698;40;20882;-65
2021/07/06 21:37:42;;;;;;;2.00;1.37;;;;;;;;;;3584657;40;20025;-65
2021/07/06 21:40:07;;;;;;;1.70;1.37;;;;;;;;;;3584226;40;20137;-65
2021/07/06 21:42:32;;;;;;;5.53;1.40;;;;;;;;;;3586345;40;20413;-65
2021/07/06 21:44:58;;;;;;;4.50;1.40;;;;;;;;;;3584660;40;20299;-67
2021/07/06 21:47:23;;;;;;;8.33;1.40;;;;;;;;;;3585294;40;20318;-67
2021/07/06 21:49:48;;;;;;;4.93;1.47;;;;;;;;;;3585437;40;20792;-67
2021/07/06 21:52:13;;;;;;;2.80;1.50;;;;;;;;;;3586155;40;20036;-67
2021/07/06 21:54:38;;;;;;;7.27;1.70;;;;;;;;;;3593204;39;20123;-67
2021/07/06 21:57:04;;;;;;;4.28;1.30;;;;;;;;;;3585104;40;20028;-67
2021/07/06 21:59:29;;;;;;;5.03;1.50;;;;;;;;;;3587009;40;20396;-65
2021/07/06 22:01:54;;;;;;;1.70;1.20;;;;;;;;;;3583131;40;20036;-67
2021/07/06 22:04:19;;;;;;;3.37;1.40;;;;;;;;;;3586019;40;20091;-67
2021/07/06 22:06:44;;;;;;;2.90;1.33;;;;;;;;;;3591512;39;20035;-67
2021/07/06 22:09:10;;;;;;;3.00;1.33;;;;;;;;;;3584836;40;20032;-66
2021/07/06 22:11:35;;;;;;;4.30;1.23;;;;;;;;;;3584714;40;20129;-67
2021/07/06 22:14:00;;;;;;;3.20;1.77;;;;;;;;;;3585545;40;20755;-66
2021/07/06 22:16:25;;;;;;;1.63;1.40;;;;;;;;;;3583992;40;20144;-66
2021/07/06 22:18:52;;;;;;;2.33;1.60;;;;;;;;;;3586414;40;20593;-66
2021/07/06 22:21:17;;;;;;;2.53;1.30;;;;;;;;;;3583722;40;20036;-66
2021/07/06 22:23:42;;;;;;;3.30;1.40;;;;;;;;;;3585530;40;20032;-67
2021/07/06 22:26:07;;;;;;;2.27;1.30;;;;;;;;;;3591885;39;20024;-66
2021/07/06 22:28:33;;;;;;;2.80;1.10;;;;;;;;;;3584794;40;20027;-66
2021/07/06 22:30:58;;;;;;;2.77;1.30;;;;;;;;;;3585254;40;20079;-67
2021/07/06 22:33:23;;;;;;;1.93;1.20;;;;;;;;;;3586059;40;20719;-67
2021/07/06 22:35:48;;;;;;;4.20;1.00;;;;;;;;;;3584734;40;20082;-67
2021/07/06 22:38:13;;;;;;;1.10;0.90;;;;;;;;;;3583209;40;20090;-67
2021/07/06 22:40:39;;;;;;;2.30;1.27;;;;;;;;;;3592332;39;20028;-67
2021/07/06 22:43:04;;;;;;;6.00;1.30;;;;;;;;;;3585139;39;20036;-67
2021/07/06 22:45:29;;;;;;;2.17;1.20;;;;;;;;;;3584710;40;20428;-67
2021/07/06 22:47:54;;;;;;;2.93;1.30;;;;;;;;;;3585394;40;20690;-67
2021/07/06 22:50:19;;;;;;;4.43;1.23;;;;;;;;;;3583735;40;20032;-67
2021/07/06 22:52:44;;;;;;;2.67;1.03;;;;;;;;;;3590935;39;20052;-67
2021/07/06 22:55:10;;;;;;;3.80;1.20;;;;;;;;;;3583632;40;20460;-67
2021/07/06 22:57:35;;;;;;;12.07;1.30;;;;;;;;;;3584705;40;20037;-67